Time;durP1;ratioP1;P1;durP2;ratioP2;P2;SDS_P1;SDS_P2;PMS_P1;PMS_P2;Temp;Humidity;BMP_temperature;BMP_pressure;BME280_temperature;BME280_humidity;BME280_pressure;Samples;Min_cycle;Max_cycle;Signal;HPM_P1;HPM_P2
2021/12/07 00:00:19;;;;;;;;;21.00;20.00;;;;;8.65;48.55;98320.09;6105629;28;97942;-68
2021/12/07 00:03:22;;;;;;;;;21.75;19.75;;;;;8.61;48.43;98311.66;6134086;28;98677;-68
2021/12/07 00:06:27;;;;;;;;;22.00;21.00;;;;;8.63;48.44;98308.75;6140077;28;96475;-67
2021/12/07 00:09:30;;;;;;;;;19.60;18.20;;;;;8.61;48.77;98300.91;6138554;28;96991;-68
2021/12/07 00:12:38;;;;;;;;;25.00;20.00;;;;;8.61;48.61;98286.66;6128692;28;97966;-67
2021/12/07 00:15:42;;;;;;;;;21.75;19.00;;;;;8.61;48.73;98286.66;6139189;28;97461;-67
2021/12/07 00:18:46;;;;;;;;;21.00;18.50;;;;;8.62;48.74;98282.94;6104611;28;99478;-67
2021/12/07 00:21:52;;;;;;;;;21.60;19.60;;;;;8.65;48.27;98293.22;6116187;28;96640;-68
2021/12/07 00:24:55;;;;;;;;;20.00;17.00;;;;;8.65;48.12;98290.53;6145581;28;96784;-68
2021/12/07 00:27:59;;;;;;;;;19.20;18.00;;;;;8.64;48.33;98296.97;6104887;28;99651;-67
2021/12/07 00:31:11;;;;;;;;;21.00;19.00;;;;;8.62;48.33;98299.88;6101816;28;99515;-67
2021/12/07 00:34:24;;;;;;;;;19.60;19.60;;;;;8.63;48.39;98298.00;6119384;28;98761;-67
2021/12/07 00:37:35;;;;;;;;;21.60;18.60;;;;;8.62;48.34;98294.50;6139185;28;97062;-67
2021/12/07 00:40:39;;;;;;;;;22.60;19.60;;;;;8.63;48.19;98292.63;6121292;28;97473;-67
2021/12/07 00:43:45;;;;;;;;;24.80;20.00;;;;;8.60;48.25;98293.09;6120465;28;97403;-68
2021/12/07 00:46:49;;;;;;;;;23.40;19.40;;;;;8.57;48.71;98291.66;6121522;28;97422;-68
2021/12/07 00:49:53;;;;;;;;;23.50;20.50;;;;;8.57;48.43;98296.22;6121350;28;98158;-68
2021/12/07 00:53:02;;;;;;;;;22.40;20.00;;;;;8.53;48.37;98292.34;6110385;28;97927;-68
2021/12/07 00:56:06;;;;;;;;;21.00;20.00;;;;;8.49;48.47;98291.97;6120823;28;97835;-67
2021/12/07 00:59:09;;;;;;;;;22.40;19.40;;;;;8.48;48.70;98290.31;6120470;28;96620;-67
2021/12/07 01:02:13;;;;;;;;;19.40;18.20;;;;;8.48;48.60;98294.88;6117070;28;98804;-69
2021/12/07 01:05:21;;;;;;;;;26.00;21.60;;;;;8.46;48.66;98297.78;6123459;28;97312;-67
2021/12/07 01:25:30;;;;;;;;;24.20;20.60;;;;;8.44;48.71;98285.63;6119673;28;96651;-67
2021/12/07 01:28:37;;;;;;;;;22.60;19.00;;;;;8.45;48.40;98284.59;6137832;28;96660;-68
2021/12/07 01:31:51;;;;;;;;;23.40;18.00;;;;;8.46;48.72;98280.81;6121017;28;96502;-68
2021/12/07 01:39:27;;;;;;;;;21.00;19.00;;;;;8.44;48.37;98277.56;6108087;28;96655;-68
2021/12/07 01:50:06;;;;;;;;;24.00;20.00;;;;;8.39;47.83;98272.03;6070627;28;98351;-66
2021/12/07 01:57:47;;;;;;;;;20.40;19.00;;;;;8.31;47.66;98257.00;6085560;28;101164;-68
2021/12/07 02:00:05;;;;;;;;;22.60;20.20;;;;;8.39;47.65;98269.34;6096038;28;96974;-68
2021/12/07 02:03:15;;;;;;;;;21.80;20.20;;;;;8.41;47.55;98275.31;6123510;28;96725;-68
2021/12/07 02:06:19;;;;;;;;;22.50;21.00;;;;;8.37;47.84;98271.41;6106357;28;97478;-67
2021/12/07 02:09:22;;;;;;;;;22.00;21.00;;;;;8.38;47.64;98270.38;6118402;28;97149;-68
2021/12/07 02:12:28;;;;;;;;;23.60;21.00;;;;;8.31;47.51;98267.75;6122004;28;98116;-69
2021/12/07 02:15:35;;;;;;;;;23.00;21.00;;;;;8.07;47.84;98234.50;6136927;28;98471;-68
2021/12/07 02:18:39;;;;;;;;;25.20;21.00;;;;;8.30;47.94;98266.13;6135882;28;96406;-68
2021/12/07 02:21:44;;;;;;;;;22.75;19.00;;;;;8.31;47.80;98262.38;6101418;28;99414;-68
2021/12/07 02:24:54;;;;;;;;;22.20;20.00;;;;;8.26;48.17;98267.56;6120861;28;96899;-68
2021/12/07 02:27:58;;;;;;;;;24.00;22.60;;;;;8.26;48.15;98270.25;6136840;28;97526;-68
2021/12/07 02:31:01;;;;;;;;;23.00;21.60;;;;;8.25;48.24;98274.81;6133088;28;96752;-68
2021/12/07 02:34:05;;;;;;;;;22.50;19.00;;;;;8.23;48.53;98270.72;6126285;28;96902;-68
2021/12/07 02:37:10;;;;;;;;;23.50;20.50;;;;;8.21;48.37;98265.53;6105574;28;96815;-68
2021/12/07 02:40:14;;;;;;;;;23.00;21.00;;;;;8.22;48.36;98266.38;6123051;28;97427;-68
2021/12/07 02:43:21;;;;;;;;;24.40;21.00;;;;;8.22;48.33;98263.69;6119592;28;98106;-68
2021/12/07 02:46:26;;;;;;;;;22.20;19.00;;;;;8.21;48.43;98265.53;6123923;28;96575;-68
2021/12/07 02:49:31;;;;;;;;;23.00;22.00;;;;;8.22;48.44;98261.00;6123418;28;97408;-68
2021/12/07 02:52:38;;;;;;;;;23.00;20.20;;;;;8.19;48.48;98258.78;6115954;28;96760;-67
2021/12/07 02:55:43;;;;;;;;;21.00;21.00;;;;;8.20;48.66;98253.19;6127153;28;97062;-68
2021/12/07 02:58:47;;;;;;;;;20.00;18.75;;;;;8.20;48.47;98258.56;6105408;28;97541;-68
2021/12/07 03:02:00;;;;;;;;;25.60;22.00;;;;;8.18;48.28;98252.56;6118600;28;99378;-68
2021/12/07 03:05:14;;;;;;;;;24.00;21.75;;;;;8.19;48.43;98264.97;6127262;28;97501;-67
2021/12/07 03:28:45;;;;;;;;;23.00;21.00;;;;;8.19;48.39;98283.75;6122907;28;97638;-68
2021/12/07 03:31:52;;;;;;;;;26.00;21.00;;;;;8.20;48.38;98293.47;6099600;28;97304;-69
2021/12/07 03:34:56;;;;;;;;;26.00;22.50;;;;;8.11;48.34;98275.19;6118550;28;96929;-68
2021/12/07 03:38:01;;;;;;;;;27.75;23.00;;;;;8.18;48.53;98294.72;6122284;28;96683;-68
2021/12/07 03:41:07;;;;;;;;;27.00;23.00;;;;;8.18;48.66;98292.84;6118090;28;97672;-68
2021/12/07 03:44:11;;;;;;;;;27.00;23.60;;;;;8.17;48.35;98293.88;6111101;28;98463;-68
2021/12/07 03:47:14;;;;;;;;;25.50;22.25;;;;;8.18;48.23;98286.66;6145709;28;97406;-68
2021/12/07 03:50:20;;;;;;;;;29.60;24.80;;;;;8.18;48.36;98302.75;6163661;28;97822;-67
2021/12/07 03:53:27;;;;;;;;;28.00;26.00;;;;;8.19;47.98;98307.94;6135378;28;97582;-67
2021/12/07 03:56:35;;;;;;;;;22.60;20.60;;;;;8.22;48.23;98294.06;6146633;28;96746;-67
2021/12/07 03:59:39;;;;;;;;;25.00;21.00;;;;;8.21;48.12;98299.63;6146180;28;97447;-67
2021/12/07 04:02:45;;;;;;;;;24.80;20.80;;;;;8.19;48.08;98299.06;6135583;28;98603;-67
2021/12/07 04:05:55;;;;;;;;;28.00;25.80;;;;;8.19;47.97;98304.41;6162741;28;97571;-67
2021/12/07 04:08:59;;;;;;;;;29.00;24.00;;;;;8.21;47.82;98313.88;6146467;28;97893;-67
2021/12/07 04:12:04;;;;;;;;;27.40;24.00;;;;;8.21;47.93;98308.50;6138795;28;97302;-66
2021/12/07 04:15:11;;;;;;;;;28.33;23.33;;;;;8.21;48.21;98307.69;6143219;28;97314;-67
2021/12/07 04:18:15;;;;;;;;;28.50;25.50;;;;;8.20;47.85;98323.00;6163475;28;97454;-67
2021/12/07 04:21:20;;;;;;;;;26.60;23.60;;;;;8.21;48.02;98315.75;6140163;28;97390;-67
2021/12/07 04:24:27;;;;;;;;;28.40;25.00;;;;;8.19;48.15;98317.84;6158438;28;97496;-66
2021/12/07 04:27:37;;;;;;;;;26.50;22.00;;;;;8.18;48.10;98318.88;6163137;28;96496;-66
2021/12/07 04:30:42;;;;;;;;;29.25;24.25;;;;;8.21;48.13;98315.75;6144477;28;97458;-67
2021/12/07 04:33:46;;;;;;;;;23.60;19.60;;;;;8.19;48.21;98317.84;6153440;28;96872;-66
2021/12/07 04:36:50;;;;;;;;;26.00;23.80;;;;;8.17;48.51;98307.31;6126622;28;98405;-66
2021/12/07 04:39:53;;;;;;;;;27.75;25.00;;;;;8.19;48.46;98312.47;6142180;28;97367;-66
2021/12/07 04:42:58;;;;;;;;;27.00;23.00;;;;;8.19;48.42;98315.97;6116590;28;98514;-66
2021/12/07 04:46:10;;;;;;;;;26.00;23.00;;;;;8.21;48.67;98315.75;6133808;28;97429;-67
2021/12/07 04:49:46;;;;;;;;;23.50;22.25;;;;;8.17;48.24;98314.53;6135789;28;97377;-67
2021/12/07 04:59:31;;;;;;;;;27.80;22.20;;;;;8.08;48.51;98311.31;6128569;28;96602;-66
2021/12/07 05:02:37;;;;;;;;;25.00;22.20;;;;;8.12;48.65;98315.19;6125793;28;99030;-67
2021/12/07 05:05:46;;;;;;;;;28.00;24.00;;;;;8.07;48.94;98311.53;6140827;28;97417;-67
2021/12/07 05:08:56;;;;;;;;;30.60;26.00;;;;;7.97;48.70;98292.41;6103834;28;97227;-69
2021/12/07 05:12:21;;;;;;;;;30.00;26.40;;;;;8.11;48.82;98324.28;6129507;28;98043;-68
2021/12/07 05:15:32;;;;;;;;;29.00;26.00;;;;;8.11;48.91;98331.56;6113870;28;97508;-66
2021/12/07 05:24:17;;;;;;;;;27.00;23.00;;;;;8.14;48.61;98318.50;6135047;28;96894;-67
2021/12/07 05:37:46;;;;;;;;;31.20;25.00;;;;;8.10;48.81;98321.84;6137945;28;97181;-69
2021/12/07 05:40:49;;;;;;;;;29.00;24.40;;;;;8.07;48.92;98317.72;6140493;28;97445;-70
2021/12/07 05:43:52;;;;;;;;;29.00;22.60;;;;;8.09;48.65;98312.16;6094843;28;98714;-66
2021/12/07 05:46:57;;;;;;;;;28.40;25.00;;;;;8.11;48.56;98310.06;6136956;28;97354;-67
2021/12/07 05:50:01;;;;;;;;;29.40;25.20;;;;;8.07;48.82;98312.34;6136726;28;97476;-68
2021/12/07 05:53:10;;;;;;;;;30.00;25.00;;;;;8.10;48.86;98308.44;6124878;28;98600;-66
2021/12/07 05:56:14;;;;;;;;;29.80;24.00;;;;;8.09;48.94;98312.16;6131039;28;96524;-67
2021/12/07 05:59:17;;;;;;;;;30.60;24.40;;;;;8.07;48.86;98308.84;6099460;28;99856;-66
2021/12/07 06:02:22;;;;;;;;;34.00;28.00;;;;;8.06;48.87;98315.28;6091782;28;97903;-66
2021/12/07 06:05:27;;;;;;;;;33.00;26.00;;;;;8.07;48.86;98320.41;6117614;28;99215;-68
2021/12/07 06:08:31;;;;;;;;;31.00;28.00;;;;;8.08;48.78;98331.97;6135719;28;97960;-69
2021/12/07 06:11:35;;;;;;;;;30.20;24.20;;;;;8.08;48.62;98330.13;6111555;28;98015;-68
2021/12/07 06:14:42;;;;;;;;;33.75;28.25;;;;;8.06;48.39;98334.06;6133883;28;96830;-67
2021/12/07 06:17:48;;;;;;;;;30.75;27.50;;;;;7.99;48.42;98322.56;6119720;28;98563;-66
2021/12/07 06:20:52;;;;;;;;;29.00;26.00;;;;;8.06;48.47;98326.81;6121374;28;96684;-66
2021/12/07 06:23:55;;;;;;;;;26.00;24.00;;;;;8.05;48.59;98329.75;6124121;28;98398;-66
2021/12/07 06:26:59;;;;;;;;;28.20;23.20;;;;;8.03;48.25;98329.13;6137355;28;97437;-67
2021/12/07 06:30:04;;;;;;;;;26.40;22.00;;;;;7.99;48.14;98334.13;6139916;28;97595;-66
2021/12/07 06:33:09;;;;;;;;;31.40;27.40;;;;;8.01;48.24;98325.84;6115261;28;97002;-66
2021/12/07 06:36:14;;;;;;;;;25.50;24.25;;;;;8.01;48.21;98324.00;6139380;28;97005;-66
2021/12/07 06:39:20;;;;;;;;;28.80;25.40;;;;;8.03;48.04;98329.13;6122252;28;96758;-69
2021/12/07 06:42:24;;;;;;;;;27.50;23.50;;;;;7.97;48.14;98338.88;6128169;28;97230;-67
2021/12/07 06:45:30;;;;;;;;;30.00;27.20;;;;;7.96;48.11;98353.34;6124764;28;96697;-66
2021/12/07 06:48:35;;;;;;;;;30.80;25.00;;;;;7.95;48.19;98342.81;6146985;28;98665;-68
2021/12/07 06:51:38;;;;;;;;;28.75;23.75;;;;;7.97;48.28;98351.47;6139426;28;96690;-68
2021/12/07 06:54:41;;;;;;;;;30.75;26.75;;;;;7.93;48.52;98355.63;6127180;28;99505;-68
2021/12/07 06:57:47;;;;;;;;;31.75;27.25;;;;;7.96;48.60;98363.25;6164850;28;96928;-68
2021/12/07 07:00:50;;;;;;;;;31.80;28.40;;;;;7.91;48.65;98358.56;6163843;28;97376;-66
2021/12/07 07:03:55;;;;;;;;;30.40;23.60;;;;;7.90;49.10;98364.94;6144164;28;100145;-68
2021/12/07 07:06:58;;;;;;;;;30.00;25.50;;;;;7.92;48.98;98360.16;6164951;28;97487;-68
2021/12/07 07:10:03;;;;;;;;;32.20;26.60;;;;;7.91;49.05;98363.91;6146953;28;98548;-67
2021/12/07 07:13:07;;;;;;;;;30.40;24.00;;;;;7.94;49.00;98368.84;6157308;28;96760;-67
2021/12/07 07:16:10;;;;;;;;;29.40;25.40;;;;;7.97;48.69;98367.56;6131014;28;100298;-66
2021/12/07 07:19:15;;;;;;;;;31.00;26.60;;;;;8.01;48.76;98376.84;6145698;28;96773;-66
2021/12/07 07:22:18;;;;;;;;;28.00;24.50;;;;;7.66;48.79;98349.63;6160825;28;97389;-67
2021/12/07 07:25:22;;;;;;;;;28.50;25.00;;;;;7.88;48.81;98374.25;6177124;28;96407;-67
2021/12/07 07:28:26;;;;;;;;;33.00;26.50;;;;;7.87;48.88;98384.16;6145661;28;96647;-69
2021/12/07 07:31:30;;;;;;;;;34.75;27.50;;;;;7.87;48.96;98383.34;6141308;28;99731;-68
2021/12/07 07:34:35;;;;;;;;;29.00;25.00;;;;;7.86;49.19;98379.84;6158071;28;96691;-66
2021/12/07 07:37:38;;;;;;;;;34.75;26.75;;;;;7.91;48.71;98379.19;6164058;28;96651;-67
2021/12/07 07:40:44;;;;;;;;;31.40;28.40;;;;;7.89;48.65;98382.09;6164290;28;96547;-69
2021/12/07 07:43:48;;;;;;;;;34.60;27.20;;;;;7.92;48.35;98383.50;6148056;28;97904;-68
2021/12/07 07:46:53;;;;;;;;;39.00;30.00;;;;;7.94;48.16;98384.13;6146359;28;97596;-68
2021/12/07 07:49:58;;;;;;;;;31.00;30.00;;;;;7.92;47.97;98384.31;6164086;28;97381;-67
2021/12/07 07:53:02;;;;;;;;;31.75;25.00;;;;;7.92;48.00;98384.31;6133500;28;97378;-68
2021/12/07 07:56:07;;;;;;;;;31.20;25.20;;;;;7.93;47.96;98390.50;6163186;28;97936;-68
2021/12/07 07:59:10;;;;;;;;;35.00;29.60;;;;;7.88;48.22;98391.16;6145488;28;99465;-68
2021/12/07 08:02:15;;;;;;;;;33.00;29.00;;;;;7.89;48.10;98394.69;6150947;28;96369;-67
2021/12/07 08:05:20;;;;;;;;;30.00;26.00;;;;;7.86;47.67;98387.91;6129650;28;98617;-66
2021/12/07 08:08:29;;;;;;;;;34.60;26.40;;;;;7.86;47.86;98387.06;6164038;28;97089;-67
2021/12/07 08:11:33;;;;;;;;;31.00;28.60;;;;;7.76;48.08;98398.28;6140453;28;96710;-69
2021/12/07 08:14:36;;;;;;;;;28.60;26.00;;;;;7.82;48.04;98384.81;6155275;28;97994;-66
2021/12/07 08:17:40;;;;;;;;;35.60;29.20;;;;;7.83;48.21;98389.13;6163363;28;97516;-67
2021/12/07 08:20:45;;;;;;;;;32.75;26.50;;;;;7.86;48.27;98381.72;6163666;28;96653;-67
2021/12/07 08:23:49;;;;;;;;;36.40;30.40;;;;;7.77;48.34;98384.63;6164137;28;100295;-69
2021/12/07 08:26:53;;;;;;;;;37.00;30.00;;;;;7.89;48.37;98387.44;6137644;28;98157;-67
2021/12/07 08:29:56;;;;;;;;;33.60;27.80;;;;;7.80;48.40;98381.53;6145063;28;97941;-69
2021/12/07 08:32:59;;;;;;;;;34.80;30.00;;;;;7.72;48.17;98362.97;6145671;28;98996;-67
2021/12/07 08:36:05;;;;;;;;;35.00;30.00;;;;;7.96;48.41;98393.63;6162906;28;96982;-67
2021/12/07 08:39:10;;;;;;;;;37.75;28.25;;;;;7.97;48.40;98384.50;6162761;28;97429;-68
2021/12/07 08:42:15;;;;;;;;;34.60;27.00;;;;;8.03;48.38;98396.22;6145620;28;98556;-67
2021/12/07 08:45:20;;;;;;;;;35.75;30.75;;;;;8.03;47.85;98394.38;6164856;28;97342;-67
2021/12/07 08:48:24;;;;;;;;;37.00;28.25;;;;;8.04;47.76;98396.03;6163081;28;97476;-67
2021/12/07 08:51:29;;;;;;;;;36.40;30.00;;;;;7.99;47.67;98401.22;6138850;28;97739;-67
2021/12/07 08:59:36;;;;;;;;;37.40;30.00;;;;;8.01;47.60;98390.28;6137043;28;96662;-67
2021/12/07 09:01:19;;;;;;;;;36.00;30.25;;;;;8.04;47.94;98387.97;6138231;28;99660;-68
2021/12/07 09:04:23;;;;;;;;;42.40;32.60;;;;;8.08;47.83;98394.53;6142858;28;99978;-68
2021/12/07 09:07:28;;;;;;;;;40.60;31.40;;;;;8.09;47.42;98395.38;6143690;28;96538;-69
2021/12/07 09:10:32;;;;;;;;;35.00;31.40;;;;;8.07;47.46;98389.38;6162667;28;97419;-69
2021/12/07 09:13:36;;;;;;;;;34.60;30.00;;;;;8.04;47.57;98390.66;6154545;28;96726;-67
2021/12/07 09:16:41;;;;;;;;;37.75;30.25;;;;;8.02;47.49;98379.31;6162558;28;97432;-67
2021/12/07 09:19:44;;;;;;;;;35.50;30.00;;;;;8.08;47.79;98393.72;6144148;28;98410;-69
2021/12/07 09:22:49;;;;;;;;;37.40;30.60;;;;;8.05;47.75;98396.84;6154717;28;100475;-67
2021/12/07 09:25:53;;;;;;;;;40.00;32.00;;;;;8.06;47.75;98387.75;6161891;28;96811;-69
2021/12/07 09:28:57;;;;;;;;;38.80;31.20;;;;;8.00;47.60;98378.72;6162070;28;96541;-67
2021/12/07 09:32:01;;;;;;;;;37.40;32.00;;;;;8.13;47.73;98391.22;6138781;28;96996;-67
2021/12/07 09:35:06;;;;;;;;;37.40;32.00;;;;;8.13;47.58;98397.41;6124091;28;99597;-67
2021/12/07 09:38:11;;;;;;;;;41.00;32.60;;;;;8.11;47.66;98393.31;6161910;28;96933;-67
2021/12/07 09:41:16;;;;;;;;;37.00;31.75;;;;;8.11;47.77;98391.41;6156268;28;97690;-67
2021/12/07 09:44:19;;;;;;;;;39.40;32.00;;;;;8.10;47.76;98400.53;6135794;28;97753;-68
2021/12/07 09:47:24;;;;;;;;;43.20;35.20;;;;;8.12;47.77;98395.75;6137083;28;97080;-68
2021/12/07 09:50:29;;;;;;;;;39.50;33.25;;;;;8.07;47.52;98392.06;6137310;28;97416;-67
2021/12/07 09:53:33;;;;;;;;;37.60;31.80;;;;;7.86;47.81;98371.78;6123997;28;97382;-69
2021/12/07 09:56:37;;;;;;;;;37.80;30.20;;;;;7.91;47.75;98390.75;6135802;28;98184;-67
2021/12/07 09:59:41;;;;;;;;;41.60;31.40;;;;;7.84;48.02;98395.34;6136083;28;96593;-67
2021/12/07 10:02:46;;;;;;;;;38.20;32.00;;;;;7.78;48.09;98386.28;6117850;28;97466;-68
2021/12/07 10:05:50;;;;;;;;;35.00;30.00;;;;;7.79;48.25;98393.28;6137205;28;97633;-66
2021/12/07 10:08:55;;;;;;;;;33.60;30.20;;;;;7.74;47.98;98384.25;6135444;28;97878;-68
2021/12/07 10:11:58;;;;;;;;;39.60;31.80;;;;;7.82;48.08;98394.72;6136616;28;97336;-66
2021/12/07 10:15:06;;;;;;;;;36.20;30.00;;;;;7.83;48.15;98393.69;6148362;28;97165;-68
2021/12/07 10:18:14;;;;;;;;;33.00;27.80;;;;;7.74;47.99;98394.97;6137403;28;96535;-68
2021/12/07 10:21:39;;;;;;;;;38.20;26.80;;;;;7.77;48.10;98403.41;6129527;28;99720;-66
2021/12/07 10:24:49;;;;;;;;;35.00;30.00;;;;;7.54;48.28;98357.53;6132232;28;96445;-68
2021/12/07 10:27:53;;;;;;;;;36.33;29.33;;;;;7.82;48.50;98395.53;6136608;28;97431;-66
2021/12/07 10:30:56;;;;;;;;;37.00;30.40;;;;;7.73;48.26;98404.06;6134336;28;96375;-69
2021/12/07 10:34:03;;;;;;;;;36.00;30.00;;;;;7.64;48.36;98394.63;6111375;28;97487;-68
2021/12/07 10:37:09;;;;;;;;;34.00;30.33;;;;;7.70;48.53;98393.75;6121321;28;97167;-70
2021/12/07 10:40:14;;;;;;;;;33.20;30.00;;;;;7.71;48.58;98390.88;6133385;28;97438;-70
2021/12/07 10:43:17;;;;;;;;;35.00;30.00;;;;;7.72;48.70;98397.06;6124467;28;96776;-69
2021/12/07 10:46:33;;;;;;;;;35.00;30.00;;;;;7.66;48.84;98384.50;6118716;28;96896;-68
2021/12/07 10:49:41;;;;;;;;;33.00;27.50;;;;;7.83;48.84;98399.03;6132340;28;97562;-69
2021/12/07 10:52:45;;;;;;;;;36.00;30.00;;;;;7.80;48.67;98399.50;6124156;28;97441;-67
2021/12/07 10:55:50;;;;;;;;;33.00;30.00;;;;;7.78;48.46;98399.69;6118735;28;96472;-66
2021/12/07 10:59:01;;;;;;;;;36.00;32.00;;;;;7.83;48.28;98399.88;6139159;28;96967;-68
2021/12/07 11:02:13;;;;;;;;;39.00;30.00;;;;;7.86;48.58;98398.63;6136738;28;96673;-66
2021/12/07 11:05:22;;;;;;;;;43.20;30.20;;;;;7.91;48.32;98392.63;6134660;28;97109;-66
2021/12/07 11:08:33;;;;;;;;;39.20;31.00;;;;;7.90;48.14;98397.16;6105798;28;97785;-67
2021/12/07 11:11:37;;;;;;;;;34.00;30.00;;;;;7.82;48.55;98387.47;6114158;28;97946;-69
2021/12/07 11:14:48;;;;;;;;;37.25;29.00;;;;;7.76;48.09;98399.09;6131784;28;96759;-68
2021/12/07 11:17:53;;;;;;;;;33.80;28.60;;;;;7.68;47.96;98406.56;6121706;28;96812;-68
2021/12/07 11:21:01;;;;;;;;;37.00;30.00;;;;;7.66;48.27;98405.97;6119798;28;96609;-66
2021/12/07 11:24:05;;;;;;;;;32.75;30.00;;;;;7.62;48.49;98397.53;6131149;28;100090;-69
2021/12/07 11:30:32;;;;;;;;;32.60;28.40;;;;;7.50;48.53;98409.97;6129513;28;97220;-67
2021/12/07 11:33:36;;;;;;;;;32.60;28.00;;;;;7.53;48.46;98404.16;6132579;28;97189;-66
2021/12/07 11:36:42;;;;;;;;;34.60;28.60;;;;;7.53;48.44;98397.97;6138135;28;96541;-67
2021/12/07 11:39:51;;;;;;;;;35.20;28.40;;;;;7.37;48.66;98410.84;6136802;28;97417;-67
2021/12/07 11:42:57;;;;;;;;;36.60;28.00;;;;;7.29;48.65;98397.66;6109698;28;99821;-66
2021/12/07 11:46:01;;;;;;;;;28.00;26.00;;;;;7.34;48.39;98394.34;6136991;28;96898;-68
2021/12/07 11:49:13;;;;;;;;;34.00;30.00;;;;;7.19;48.92;98396.47;6139068;28;96645;-66
2021/12/07 11:52:16;;;;;;;;;37.80;30.80;;;;;7.13;49.02;98391.97;6131271;28;97456;-67
2021/12/07 11:55:21;;;;;;;;;35.20;29.20;;;;;7.19;49.30;98394.63;6135483;28;97342;-68
2021/12/07 11:58:27;;;;;;;;;32.00;27.50;;;;;7.36;49.29;98392.28;6123460;28;97189;-68
2021/12/07 12:01:31;;;;;;;;;37.00;30.00;;;;;7.40;48.96;98394.34;6117970;28;97485;-66
2021/12/07 12:04:35;;;;;;;;;32.20;26.40;;;;;7.45;48.54;98395.53;6115002;28;97353;-68
2021/12/07 12:07:41;;;;;;;;;32.20;27.60;;;;;7.50;48.49;98404.59;6121999;28;96643;-68
2021/12/07 12:10:48;;;;;;;;;34.40;30.00;;;;;7.48;48.33;98397.81;6119444;28;97767;-66
2021/12/07 12:14:07;;;;;;;;;32.50;29.50;;;;;7.50;48.46;98404.59;6101881;28;97647;-69
2021/12/07 12:17:14;;;;;;;;;34.50;28.00;;;;;7.51;48.58;98410.78;6116289;28;96805;-67
2021/12/07 12:20:29;;;;;;;;;35.60;30.80;;;;;7.42;48.54;98404.03;6130273;28;98064;-71
2021/12/07 12:23:42;;;;;;;;;34.25;29.00;;;;;7.33;48.48;98406.13;6127712;28;97934;-67
2021/12/07 12:26:47;;;;;;;;;32.75;28.00;;;;;7.24;48.61;98399.34;6129736;28;97476;-66
2021/12/07 12:29:54;;;;;;;;;35.50;29.00;;;;;7.40;48.50;98407.75;6138497;28;97499;-68
2021/12/07 12:33:00;;;;;;;;;38.75;31.00;;;;;7.45;48.48;98399.06;6131006;28;96766;-69
2021/12/07 12:36:04;;;;;;;;;39.75;31.25;;;;;7.47;48.83;98397.00;6137199;28;96671;-66
2021/12/07 12:39:09;;;;;;;;;33.40;27.00;;;;;7.49;48.45;98397.59;6136484;28;96482;-69
2021/12/07 12:42:18;;;;;;;;;39.00;29.50;;;;;7.39;48.65;98395.38;6097588;28;99493;-68
2021/12/07 12:45:28;;;;;;;;;34.60;29.80;;;;;7.45;48.71;98393.69;6133509;28;99467;-66
2021/12/07 12:48:33;;;;;;;;;36.00;32.00;;;;;7.43;48.58;98403.00;6135749;28;97265;-66
2021/12/07 12:51:45;;;;;;;;;34.20;30.00;;;;;7.44;48.73;98408.13;6129716;28;98389;-69
2021/12/07 12:54:49;;;;;;;;;40.00;30.50;;;;;7.44;48.48;98410.81;6128826;28;97361;-69
2021/12/07 12:57:52;;;;;;;;;36.00;30.00;;;;;7.49;48.81;98410.16;6136936;28;99924;-67
2021/12/07 13:01:22;;;;;;;;;36.50;29.00;;;;;7.43;48.47;98413.72;6133171;28;97792;-68
2021/12/07 13:04:30;;;;;;;;;36.00;29.00;;;;;7.38;48.69;98408.97;6124768;28;97287;-68
2021/12/07 13:07:33;;;;;;;;;37.00;29.00;;;;;7.44;48.79;98412.66;6136815;28;97456;-67
2021/12/07 13:10:55;;;;;;;;;39.80;32.20;;;;;7.40;48.69;98409.59;6136862;28;98061;-69
2021/12/07 13:13:58;;;;;;;;;34.80;30.00;;;;;7.27;48.69;98426.56;6134475;28;96688;-69
2021/12/07 13:17:08;;;;;;;;;43.20;31.80;;;;;7.30;48.86;98428.81;6118159;28;97200;-68
2021/12/07 13:20:38;;;;;;;;;36.00;30.00;;;;;7.23;48.85;98435.25;6131356;28;97604;-67
2021/12/07 13:23:41;;;;;;;;;40.25;29.00;;;;;7.21;49.05;98432.78;6115849;28;96701;-67
2021/12/07 13:26:52;;;;;;;;;35.00;30.00;;;;;7.17;49.00;98436.91;6137749;28;96515;-69
2021/12/07 13:29:55;;;;;;;;;32.60;27.20;;;;;7.10;49.15;98429.91;6132758;28;100486;-67
2021/12/07 13:33:14;;;;;;;;;34.20;27.00;;;;;7.14;49.19;98442.69;6129795;28;100684;-68
2021/12/07 13:36:41;;;;;;;;;34.60;29.60;;;;;7.14;49.08;98441.84;6123176;28;96658;-68
2021/12/07 13:39:47;;;;;;;;;37.60;26.60;;;;;6.97;49.40;98447.69;6137646;28;97129;-66
2021/12/07 13:42:53;;;;;;;;;34.00;30.00;;;;;6.79;49.12;98419.91;6126224;28;96876;-68
2021/12/07 13:46:09;;;;;;;;;33.50;27.25;;;;;6.98;49.39;98443.16;6126232;28;96666;-69
2021/12/07 13:49:15;;;;;;;;;32.50;29.00;;;;;6.74;49.37;98425.88;6137524;28;96652;-70
2021/12/07 13:52:22;;;;;;;;;31.50;27.00;;;;;6.93;49.55;98451.00;6088331;28;99022;-66
2021/12/07 13:55:28;;;;;;;;;32.80;27.80;;;;;6.89;49.50;98452.44;6118253;28;97459;-69
2021/12/07 13:58:45;;;;;;;;;39.00;30.00;;;;;7.01;49.46;98455.28;6129836;28;96540;-69
2021/12/07 14:01:52;;;;;;;;;39.00;31.00;;;;;7.07;49.48;98460.66;6130754;28;98676;-66
2021/12/07 14:05:06;;;;;;;;;35.80;29.80;;;;;7.01;49.46;98460.66;6115829;28;98073;-68
2021/12/07 14:08:12;;;;;;;;;35.40;30.00;;;;;6.96;49.71;98459.44;6136599;28;97487;-69
2021/12/07 14:11:17;;;;;;;;;35.80;28.60;;;;;6.90;50.13;98465.63;6131778;28;97147;-66
2021/12/07 14:14:21;;;;;;;;;38.25;32.00;;;;;6.85;50.01;98470.78;6126947;28;97936;-67
2021/12/07 14:17:24;;;;;;;;;36.20;31.80;;;;;6.92;49.96;98482.31;6130586;28;98011;-68
2021/12/07 14:20:32;;;;;;;;;40.00;32.00;;;;;7.01;49.75;98479.41;6083361;28;98544;-67
2021/12/07 14:23:39;;;;;;;;;37.40;31.40;;;;;6.90;49.38;98473.66;6094955;28;98435;-68
2021/12/07 14:26:43;;;;;;;;;36.40;30.20;;;;;6.93;49.38;98483.97;6130793;28;96953;-70
2021/12/07 14:29:47;;;;;;;;;35.80;30.00;;;;;6.88;49.79;98483.78;6135536;28;96645;-68
2021/12/07 14:32:50;;;;;;;;;40.00;30.00;;;;;6.75;50.08;98488.28;6128191;28;97269;-67
2021/12/07 14:35:55;;;;;;;;;31.20;27.80;;;;;6.78;50.08;98487.91;6121765;28;97618;-68
2021/12/07 14:39:05;;;;;;;;;37.50;30.00;;;;;6.76;50.23;98498.81;6105909;28;98403;-68
2021/12/07 14:42:11;;;;;;;;;37.00;29.60;;;;;6.80;50.22;98494.69;6128615;28;97407;-68
2021/12/07 14:45:15;;;;;;;;;36.00;30.00;;;;;6.88;49.72;98497.19;6138216;28;97470;-69
2021/12/07 14:48:18;;;;;;;;;39.50;30.50;;;;;6.81;49.97;98492.84;6102623;28;97099;-69
2021/12/07 14:51:27;;;;;;;;;36.40;30.00;;;;;6.74;49.84;98500.91;6114094;28;98531;-70
2021/12/07 14:54:31;;;;;;;;;35.75;29.00;;;;;6.63;50.01;98488.13;6115991;28;96775;-69
2021/12/07 14:57:37;;;;;;;;;36.40;27.60;;;;;6.60;50.26;98496.53;6135007;28;96663;-67
2021/12/07 15:00:40;;;;;;;;;30.20;26.00;;;;;6.51;50.17;98497.78;6137964;28;96688;-69
2021/12/07 15:03:46;;;;;;;;;33.00;29.00;;;;;6.54;50.30;98497.38;6127531;28;98240;-68
2021/12/07 15:06:56;;;;;;;;;37.40;32.00;;;;;6.63;50.09;98506.03;6137544;28;97949;-67
2021/12/07 15:10:03;;;;;;;;;33.00;29.00;;;;;6.65;49.84;98512.81;6118858;28;97248;-68
2021/12/07 15:13:06;;;;;;;;;38.60;31.80;;;;;6.77;49.65;98515.72;6135051;28;96797;-68
2021/12/07 15:16:12;;;;;;;;;37.75;31.00;;;;;6.75;49.44;98513.22;6139640;28;96882;-67
2021/12/07 15:19:18;;;;;;;;;35.00;27.67;;;;;6.66;49.22;98530.53;6120127;28;97659;-69
2021/12/07 15:22:23;;;;;;;;;34.75;27.75;;;;;6.55;49.40;98520.44;6132548;28;96631;-69
2021/12/07 15:25:26;;;;;;;;;37.00;30.00;;;;;6.47;49.72;98518.78;6121568;28;97751;-69
2021/12/07 15:28:30;;;;;;;;;43.40;31.20;;;;;6.41;49.81;98526.81;6139750;28;97390;-70
2021/12/07 15:31:41;;;;;;;;;35.60;30.00;;;;;6.49;49.71;98522.09;6118953;28;98697;-67
2021/12/07 15:34:47;;;;;;;;;39.00;31.00;;;;;6.56;49.66;98524.78;6136500;28;97415;-67
2021/12/07 15:37:52;;;;;;;;;36.00;28.00;;;;;6.60;49.56;98523.31;6105769;28;97211;-68
2021/12/07 15:40:55;;;;;;;;;38.60;31.00;;;;;6.66;49.64;98527.88;6119747;28;97465;-67
2021/12/07 15:43:59;;;;;;;;;40.25;32.00;;;;;6.74;49.46;98535.72;6106174;28;100152;-68
2021/12/07 15:47:06;;;;;;;;;41.00;31.00;;;;;6.80;49.64;98534.88;6121710;28;97613;-67